Airports



ATIS

D

Current ATIS/METAR

WINNIPEG INTERNATIONAL, INFORMATION D. WEATHER, AT 2100Z. 17022G29KT 15SM FEW009 OVC230 -02/-04 A2963 (TWO NINER SIX THREE). IFR APCH, RNAV ZULU OR YANKEE, RWY 18. PILOTS SHALL INFORM ATC OF REQUESTED APPROACH. LANDING AND DEPARTING RWY 18.. . ...ADVS YOU HAVE INFO D.

  • Tower/Terminal at Winnipeg International (CYWG) is open 24/7.
  • Tower St. Andrews (CYAV) is open daily from 1300Z - 0400Z.

  • Current ATIS/METAR

    CYPG 252100Z 17013KT 12SM BKN160 BKN240 03/M01 A2957 RMK AC5CI2 SLP028

  • Tower open Mon - Fri from 1400Z - 2300Z, excluding holidays.

  • Current ATIS/METAR

    CYXE 252114Z 29015G20KT 2 1/2SM -SN DRSN BKN012 OVC040 M02/M03 A2954 RMK SC6SC2 OCNL BLSN SLP034

  • Tower open Mon - Fri between March 9th - October 31st, from 1200Z - 0445Z.
  • Tower open Sat - Sun between March 9th - October 31st, from 1245Z - 0445Z.
  • Tower open between November 1st - March 8th, from 1245Z - 0445Z.

  • Current ATIS/METAR

    CYQT 252100Z VRB02KT 20SM BKN023 02/M02 A2986 RMK SC6 SLP124

  • Tower open daily from 1200Z - 0400Z.

  • Current ATIS/METAR

    CYQR 252100Z 29022KT 15SM FEW015 BKN150 BKN240 M03/M06 A2954 RMK SC1AC4CI2 PRESRR SLP037

  • Tower open between April 1st - October 31st, from 1200Z - 0400Z.
  • Tower open between November 1st - March 31st, from 1200Z - 0500Z.

  • Current ATIS/METAR

    CYMJ 252100Z 30021G29KT 8SM OVC016 M02/M05 A2956 RMK SC8 SLP033

  • Tower/Terminal open between February 16st - October 31st, from 1400Z - 0030Z.
  • Tower/Terminal open between November 1st - Februaty 15th, from 1430Z - 0100Z.
  • Tower/Terminal also frequenty closed on weekends.